createdAt,value
2018-04-30T00:01:50.299Z,6.40
2018-04-30T00:04:20.122Z,5.70
2018-04-30T00:06:50.012Z,7.40
2018-04-30T00:09:19.183Z,5.23
2018-04-30T00:11:48.251Z,6.97
2018-04-30T00:14:17.320Z,6.07
2018-04-30T00:16:46.449Z,5.67
2018-04-30T00:19:15.584Z,7.23
2018-04-30T00:21:44.676Z,7.10
2018-04-30T00:24:13.788Z,8.20
2018-04-30T00:26:43.648Z,9.43
2018-04-30T00:29:13.483Z,5.67
2018-04-30T00:31:43.341Z,6.27
2018-04-30T00:34:12.451Z,6.37
2018-04-30T00:36:41.576Z,6.53
2018-04-30T00:39:10.790Z,6.90
2018-04-30T00:41:39.918Z,8.50
2018-04-30T00:44:09.048Z,6.17
2018-04-30T00:46:38.108Z,9.17
2018-04-30T00:49:07.252Z,6.50
2018-04-30T00:51:36.311Z,6.27
2018-04-30T00:54:05.375Z,10.90
2018-04-30T00:56:34.495Z,6.63
2018-04-30T00:59:03.584Z,8.40
2018-04-30T01:01:32.687Z,6.97
2018-04-30T01:04:01.792Z,6.83
2018-04-30T01:06:30.883Z,7.23
2018-04-30T01:08:59.948Z,6.37
2018-04-30T01:11:29.050Z,6.57
2018-04-30T01:13:58.183Z,7.90
2018-04-30T01:16:28.019Z,10.90
2018-04-30T01:18:58.048Z,8.30
2018-04-30T01:21:27.177Z,8.40
2018-04-30T01:23:56.290Z,8.47
2018-04-30T01:26:25.368Z,11.80
2018-04-30T01:28:55.228Z,10.37
2018-04-30T01:31:24.636Z,10.07
2018-04-30T01:33:53.739Z,9.30
2018-04-30T01:36:22.841Z,9.03
2018-04-30T01:38:52.680Z,10.40
2018-04-30T01:41:21.779Z,13.60
2018-04-30T01:43:51.644Z,11.67
2018-04-30T01:46:20.726Z,14.07
2018-04-30T01:48:50.592Z,19.90
2018-04-30T01:51:19.692Z,13.23
2018-04-30T01:53:48.798Z,21.30
2018-04-30T01:56:17.867Z,16.17
2018-04-30T01:58:47.701Z,10.83
2018-04-30T02:01:17.565Z,11.03
2018-04-30T02:03:46.676Z,11.07
2018-04-30T02:06:15.781Z,11.50
2018-04-30T02:08:44.852Z,11.47
2018-04-30T02:11:14.736Z,11.27
2018-04-30T02:13:43.799Z,12.90
2018-04-30T02:16:13.631Z,10.87
2018-04-30T02:18:43.468Z,10.83
2018-04-30T02:21:13.478Z,13.23
2018-04-30T02:23:43.326Z,11.60
2018-04-30T02:26:12.395Z,11.30
2018-04-30T02:28:41.531Z,13.40
2018-04-30T02:31:11.429Z,11.60
2018-04-30T02:33:40.636Z,12.67
2018-04-30T02:36:10.419Z,12.43
2018-04-30T02:38:39.532Z,12.57
2018-04-30T02:41:08.603Z,13.63
2018-04-30T02:43:37.731Z,13.93
2018-04-30T02:46:07.575Z,17.63
2018-04-30T02:48:37.469Z,12.70
2018-04-30T02:51:06.748Z,16.60
2018-04-30T02:53:35.832Z,16.20
2018-04-30T02:56:04.941Z,11.37
2018-04-30T02:58:34.297Z,11.30
2018-04-30T03:01:03.376Z,13.93
2018-04-30T03:03:32.444Z,11.40
2018-04-30T03:06:01.548Z,15.23
2018-04-30T03:08:30.684Z,10.97
2018-04-30T03:11:00.586Z,15.07
2018-04-30T03:13:29.771Z,11.87
2018-04-30T03:15:58.843Z,18.70
2018-04-30T03:18:28.679Z,19.33
2018-04-30T03:20:58.572Z,17.53
2018-04-30T03:23:27.680Z,18.77
2018-04-30T03:25:56.790Z,17.23
2018-04-30T03:28:25.889Z,13.13
2018-04-30T03:30:54.964Z,12.77
2018-04-30T03:33:24.047Z,13.00
2018-04-30T03:35:53.945Z,17.07
2018-04-30T03:38:23.094Z,11.70
2018-04-30T03:40:52.175Z,12.67
2018-04-30T03:43:21.246Z,12.33
2018-04-30T03:45:50.312Z,11.13
2018-04-30T03:48:20.139Z,10.87
2018-04-30T03:50:50.248Z,10.10
2018-04-30T03:53:19.385Z,12.70
2018-04-30T03:55:49.252Z,12.50
2018-04-30T03:58:18.417Z,13.57
2018-04-30T04:01:06.132Z,10.23
2018-04-30T04:03:53.233Z,9.30
2018-04-30T04:09:30.665Z,11.73
2018-04-30T04:11:59.800Z,10.23
2018-04-30T04:14:28.999Z,7.60
2018-04-30T04:16:58.066Z,10.70
2018-04-30T04:19:27.144Z,10.37
2018-04-30T04:21:56.215Z,11.93
2018-04-30T04:24:26.143Z,17.13
2018-04-30T04:26:56.068Z,7.37
2018-04-30T04:29:25.945Z,11.70
2018-04-30T04:31:55.016Z,11.10
2018-04-30T04:34:24.086Z,9.20
2018-04-30T04:36:53.246Z,9.20
2018-04-30T04:39:22.338Z,14.33
2018-04-30T04:41:52.193Z,9.03
2018-04-30T04:44:21.259Z,9.30
2018-04-30T04:46:50.343Z,8.93
2018-04-30T04:49:20.260Z,7.77
2018-04-30T04:51:49.327Z,8.03
2018-04-30T04:54:19.150Z,7.70
2018-04-30T04:56:49.028Z,8.70
2018-04-30T04:59:18.099Z,7.33
2018-04-30T05:01:48.048Z,8.43
2018-04-30T05:04:17.146Z,7.83
2018-04-30T05:06:46.211Z,7.63
2018-04-30T05:09:15.333Z,8.50
2018-04-30T05:11:44.404Z,7.40
2018-04-30T05:14:13.486Z,7.90
2018-04-30T05:16:42.554Z,12.77
2018-04-30T05:19:11.735Z,9.30
2018-04-30T05:21:40.795Z,15.13
2018-04-30T05:24:10.660Z,12.93
2018-04-30T05:26:39.735Z,9.80
2018-04-30T05:29:09.596Z,11.30
2018-04-30T05:31:38.700Z,10.23
2018-04-30T05:34:07.796Z,12.13
2018-04-30T05:36:36.866Z,11.90
2018-04-30T05:39:05.999Z,7.53
2018-04-30T05:41:35.827Z,9.20
2018-04-30T05:44:04.953Z,12.27
2018-04-30T05:46:34.088Z,8.03
2018-04-30T05:49:03.184Z,8.17
2018-04-30T05:51:32.313Z,8.87
2018-04-30T05:54:01.472Z,8.50
2018-04-30T05:56:30.535Z,10.50
2018-04-30T05:58:59.604Z,7.00
2018-04-30T06:01:28.846Z,8.43
2018-04-30T06:03:57.997Z,7.97
2018-04-30T06:06:27.079Z,7.90
2018-04-30T06:08:56.164Z,6.87
2018-04-30T06:11:26.024Z,10.40
2018-04-30T06:13:55.157Z,6.90
2018-04-30T06:16:24.251Z,7.40
2018-04-30T06:18:53.351Z,7.00
2018-04-30T06:21:22.450Z,7.83
2018-04-30T06:23:51.523Z,8.33
2018-04-30T06:26:20.696Z,9.83
2018-04-30T06:28:49.812Z,7.53
2018-04-30T06:31:18.913Z,11.17
2018-04-30T06:33:47.995Z,7.30
2018-04-30T06:36:17.085Z,8.63
2018-04-30T06:38:46.959Z,16.00
2018-04-30T06:41:16.032Z,10.03
2018-04-30T06:43:45.888Z,8.03
2018-04-30T06:46:14.955Z,8.70
2018-04-30T06:48:44.079Z,7.57
2018-04-30T06:51:13.911Z,8.50
2018-04-30T06:53:43.821Z,9.60
2018-04-30T06:56:12.878Z,8.37
2018-04-30T06:58:41.934Z,6.93
2018-04-30T07:01:11.029Z,10.80
2018-04-30T07:03:40.095Z,9.80
2018-04-30T07:06:09.185Z,7.67
2018-04-30T07:08:39.089Z,15.30
2018-04-30T07:11:08.154Z,8.13
2018-04-30T07:13:37.438Z,6.73
2018-04-30T07:16:07.300Z,12.50
2018-04-30T07:18:36.404Z,8.03
2018-04-30T07:21:05.459Z,12.73
2018-04-30T07:23:34.548Z,7.53
2018-04-30T07:26:03.634Z,10.60
2018-04-30T07:28:32.726Z,7.87
2018-04-30T07:31:01.853Z,7.47
2018-04-30T07:33:30.915Z,9.90
2018-04-30T07:36:00.013Z,12.13
2018-04-30T07:38:29.108Z,8.30
2018-04-30T07:40:58.319Z,10.83
2018-04-30T07:43:27.403Z,14.70
2018-04-30T07:45:56.496Z,13.03
2018-04-30T07:48:26.359Z,12.50
2018-04-30T07:50:55.471Z,7.60
2018-04-30T07:53:24.537Z,14.50
2018-04-30T07:55:54.355Z,11.87
2018-04-30T07:58:24.290Z,10.43
2018-04-30T08:00:54.412Z,8.43
2018-04-30T08:03:23.503Z,9.07
2018-04-30T08:05:52.635Z,10.03
2018-04-30T08:08:22.464Z,8.93
2018-04-30T08:10:51.537Z,7.50
2018-04-30T08:13:20.595Z,9.23
2018-04-30T08:15:50.509Z,16.33
2018-04-30T08:18:19.651Z,8.10
2018-04-30T08:20:48.716Z,10.43
2018-04-30T08:23:17.808Z,10.77
2018-04-30T08:25:46.900Z,7.17
2018-04-30T08:28:15.996Z,19.60
2018-04-30T08:30:45.068Z,7.90
2018-04-30T08:33:14.922Z,6.97
2018-04-30T08:35:44.787Z,8.20
2018-04-30T08:38:13.847Z,9.90
2018-04-30T08:40:43.676Z,7.50
2018-04-30T08:43:13.532Z,6.97
2018-04-30T08:45:42.675Z,9.20
2018-04-30T08:48:11.763Z,7.23
2018-04-30T08:50:40.824Z,11.23
2018-04-30T08:53:09.919Z,7.97
2018-04-30T08:55:39.008Z,9.03
2018-04-30T08:58:08.136Z,15.47
2018-04-30T09:00:37.304Z,7.40
2018-04-30T09:03:07.099Z,5.90
2018-04-30T09:05:36.959Z,12.30
2018-04-30T09:08:06.048Z,7.83
2018-04-30T09:10:35.980Z,7.00
2018-04-30T09:13:05.803Z,8.43
2018-04-30T09:15:35.623Z,8.10
2018-04-30T09:18:05.548Z,7.70
2018-04-30T09:20:35.405Z,6.77
2018-04-30T09:23:04.467Z,8.50
2018-04-30T09:25:33.519Z,5.90
2018-04-30T09:28:02.659Z,8.07
2018-04-30T09:30:31.668Z,11.83
2018-04-30T09:33:00.726Z,5.97
2018-04-30T09:35:30.583Z,4.83
2018-04-30T09:37:59.668Z,8.60
2018-04-30T09:40:29.542Z,6.37
2018-04-30T09:42:58.623Z,6.57
2018-04-30T09:45:27.681Z,6.70
2018-04-30T09:47:56.769Z,6.33
2018-04-30T09:50:25.909Z,8.53
2018-04-30T09:52:54.962Z,9.80
2018-04-30T09:55:24.827Z,6.83
2018-04-30T09:57:53.896Z,7.00
2018-04-30T10:00:23.731Z,6.73
2018-04-30T10:02:52.860Z,12.17
2018-04-30T10:05:21.955Z,13.87
2018-04-30T10:07:51.085Z,6.90
2018-04-30T10:10:20.212Z,7.77
2018-04-30T10:12:49.339Z,10.13
2018-04-30T10:15:18.440Z,8.30
2018-04-30T10:17:47.606Z,7.27
2018-04-30T10:20:16.736Z,6.40
2018-04-30T10:22:45.829Z,5.13
2018-04-30T10:25:14.924Z,6.10
2018-04-30T10:27:44.780Z,5.13
2018-04-30T10:30:13.868Z,3.80
2018-04-30T10:32:43.756Z,2.90
2018-04-30T10:35:12.818Z,3.50
2018-04-30T10:37:42.236Z,2.37
2018-04-30T10:40:11.282Z,2.03
2018-04-30T10:42:40.447Z,1.70
2018-04-30T10:45:10.274Z,4.40
2018-04-30T10:47:40.096Z,1.23
2018-04-30T10:50:10.004Z,4.73
2018-04-30T10:52:39.099Z,1.63
2018-04-30T10:55:08.204Z,3.07
2018-04-30T10:57:37.306Z,1.60
2018-04-30T11:00:06.371Z,2.57
2018-04-30T11:02:36.277Z,1.83
2018-04-30T11:05:05.340Z,1.80
2018-04-30T11:07:34.433Z,2.00
2018-04-30T11:10:03.539Z,5.67
2018-04-30T11:12:32.670Z,1.57
2018-04-30T11:15:01.717Z,3.27
2018-04-30T11:17:31.480Z,0.93
2018-04-30T11:20:01.304Z,1.20
2018-04-30T11:22:31.128Z,6.43
2018-04-30T11:25:00.989Z,4.20
2018-04-30T11:27:30.083Z,2.30
2018-04-30T11:29:59.436Z,1.27
2018-04-30T11:32:28.574Z,1.30
2018-04-30T11:34:58.429Z,1.07
2018-04-30T11:37:27.499Z,0.70
2018-04-30T11:39:56.622Z,0.70
2018-04-30T11:42:26.463Z,1.07
2018-04-30T11:44:55.568Z,3.43
2018-04-30T11:47:25.464Z,0.77
2018-04-30T11:49:54.561Z,0.80
2018-04-30T11:52:23.677Z,6.20
2018-04-30T11:54:52.799Z,0.97
2018-04-30T11:57:21.898Z,1.37
2018-04-30T11:59:51.412Z,0.90
2018-04-30T12:02:20.494Z,4.20
2018-04-30T12:04:49.658Z,0.73
2018-04-30T12:07:19.544Z,1.23
2018-04-30T12:09:48.700Z,0.83
2018-04-30T12:12:17.808Z,1.13
2018-04-30T12:14:47.737Z,1.13
2018-04-30T12:17:16.876Z,0.70
2018-04-30T12:19:46.775Z,0.80
2018-04-30T12:22:15.895Z,0.90
2018-04-30T12:24:45.200Z,0.90
2018-04-30T12:30:12.171Z,7.70
2018-04-30T12:32:41.295Z,0.90
2018-04-30T12:35:10.408Z,2.27
2018-04-30T12:37:39.550Z,1.07
2018-04-30T12:40:08.632Z,0.60
2018-04-30T12:42:37.782Z,0.50
2018-04-30T12:45:07.663Z,0.60
2018-04-30T12:47:36.821Z,1.10
2018-04-30T12:50:06.692Z,0.60
2018-04-30T12:52:35.831Z,0.50
2018-04-30T12:55:04.940Z,2.77
2018-04-30T12:57:34.737Z,1.60
2018-04-30T13:00:03.818Z,0.60
2018-04-30T13:02:32.976Z,0.60
2018-04-30T13:05:02.123Z,0.50
2018-04-30T13:07:31.993Z,0.80
2018-04-30T13:10:01.088Z,0.50
2018-04-30T13:12:30.188Z,0.53
2018-04-30T13:15:00.020Z,0.50
2018-04-30T13:17:29.872Z,0.50
2018-04-30T13:19:58.968Z,0.50
2018-04-30T13:22:28.819Z,1.13
2018-04-30T13:24:57.935Z,0.50
2018-04-30T13:27:26.991Z,0.60
2018-04-30T13:29:56.043Z,0.63
2018-04-30T13:32:25.127Z,0.60
2018-04-30T13:34:54.959Z,0.73
2018-04-30T13:37:24.908Z,0.97
2018-04-30T13:39:54.049Z,1.70
2018-04-30T13:42:23.140Z,0.50
2018-04-30T13:44:52.264Z,0.50
2018-04-30T13:47:21.975Z,1.00
2018-04-30T13:49:51.027Z,0.50
2018-04-30T13:52:20.081Z,0.63
2018-04-30T13:54:49.252Z,0.50
2018-04-30T13:57:18.312Z,0.50
2018-04-30T13:59:47.663Z,0.63
2018-04-30T14:02:16.831Z,0.73
2018-04-30T14:04:45.871Z,1.90
2018-04-30T14:07:14.927Z,0.50
2018-04-30T14:09:44.803Z,1.33
2018-04-30T14:12:13.855Z,0.60
2018-04-30T14:14:42.944Z,0.60
2018-04-30T14:17:12.004Z,0.60
2018-04-30T14:19:41.092Z,0.50
2018-04-30T14:22:10.947Z,0.60
2018-04-30T14:24:40.031Z,2.40
2018-04-30T14:27:09.855Z,0.70
2018-04-30T14:29:39.786Z,0.60
2018-04-30T14:32:09.606Z,2.27
2018-04-30T14:34:38.696Z,1.60
2018-04-30T14:37:07.754Z,0.80
2018-04-30T14:39:36.866Z,0.50
2018-04-30T14:42:05.958Z,0.60
2018-04-30T14:44:35.821Z,2.50
2018-04-30T14:47:04.983Z,0.50
2018-04-30T14:49:34.071Z,0.50
2018-04-30T14:52:03.167Z,0.63
2018-04-30T14:54:32.258Z,0.40
2018-04-30T14:57:01.348Z,0.53
2018-04-30T14:59:30.406Z,0.50
2018-04-30T15:01:59.488Z,0.83
2018-04-30T15:04:28.691Z,0.70
2018-04-30T15:06:57.747Z,0.50
2018-04-30T15:09:26.802Z,0.50
2018-04-30T15:11:56.656Z,0.50
2018-04-30T15:14:25.747Z,0.40
2018-04-30T15:16:54.802Z,0.50
2018-04-30T15:19:23.902Z,1.60
2018-04-30T15:21:52.958Z,0.60
2018-04-30T15:24:22.939Z,0.60
2018-04-30T15:26:51.995Z,0.40
2018-04-30T15:29:21.814Z,0.70
2018-04-30T15:31:50.912Z,0.50
2018-04-30T15:34:20.163Z,0.53
2018-04-30T15:36:50.012Z,0.50
2018-04-30T15:39:19.101Z,2.57
2018-04-30T15:41:48.158Z,0.63
2018-04-30T15:44:17.244Z,1.53
2018-04-30T15:46:46.361Z,0.67
2018-04-30T15:49:15.460Z,0.53
2018-04-30T15:51:44.551Z,0.70
2018-04-30T15:54:13.644Z,1.07
2018-04-30T15:56:43.626Z,0.50
2018-04-30T15:59:12.687Z,0.60
2018-04-30T16:01:42.507Z,0.50
2018-04-30T16:04:12.404Z,0.63
2018-04-30T16:06:41.500Z,0.60
2018-04-30T16:09:10.593Z,0.70
2018-04-30T16:11:39.899Z,0.70
2018-04-30T16:14:09.005Z,1.87
2018-04-30T16:16:38.160Z,0.50
2018-04-30T16:19:07.261Z,0.50
2018-04-30T16:21:36.322Z,0.93
2018-04-30T16:24:06.174Z,0.60
2018-04-30T16:26:35.347Z,0.50
2018-04-30T16:29:04.407Z,0.50
2018-04-30T16:31:33.640Z,0.47
2018-04-30T16:34:02.699Z,0.60
2018-04-30T16:36:32.580Z,1.13
2018-04-30T16:39:01.708Z,0.50
2018-04-30T16:41:30.771Z,0.50
2018-04-30T16:43:59.823Z,0.50
2018-04-30T16:46:28.912Z,0.77
2018-04-30T16:48:57.975Z,0.60
2018-04-30T16:51:27.791Z,0.70
2018-04-30T16:53:56.843Z,0.60
2018-04-30T16:56:25.973Z,0.53
2018-04-30T16:58:55.098Z,0.73
2018-04-30T17:01:24.189Z,2.13
2018-04-30T17:03:53.342Z,0.60
2018-04-30T17:06:22.401Z,0.90
2018-04-30T17:08:51.543Z,0.63
2018-04-30T17:11:21.010Z,0.60
2018-04-30T17:13:50.156Z,0.50
2018-04-30T17:16:19.435Z,0.50
2018-04-30T17:18:48.487Z,0.50
2018-04-30T17:21:17.546Z,0.70
2018-04-30T17:23:46.600Z,0.50
2018-04-30T17:26:16.424Z,0.50
2018-04-30T17:28:45.536Z,0.63
2018-04-30T17:31:14.595Z,1.33
2018-04-30T17:33:44.900Z,0.70
2018-04-30T17:36:13.964Z,1.80
2018-04-30T17:38:43.053Z,0.60
2018-04-30T17:41:12.134Z,2.77
2018-04-30T17:43:41.232Z,0.80
2018-04-30T17:46:10.351Z,0.60
2018-04-30T17:48:39.412Z,0.67
2018-04-30T17:51:08.475Z,0.80
2018-04-30T17:53:37.841Z,0.63
2018-04-30T17:56:06.907Z,0.60
2018-04-30T17:58:35.992Z,0.60
2018-04-30T18:01:05.101Z,0.67
2018-04-30T18:03:34.200Z,0.67
2018-04-30T18:06:03.364Z,0.70
2018-04-30T18:08:33.223Z,0.70
2018-04-30T18:11:02.319Z,1.80
2018-04-30T18:13:31.384Z,0.83
2018-04-30T18:16:00.440Z,0.70
2018-04-30T18:18:29.556Z,0.57
2018-04-30T18:20:58.651Z,0.73
2018-04-30T18:23:28.494Z,0.70
2018-04-30T18:25:57.632Z,1.80
2018-04-30T18:28:26.687Z,0.87
2018-04-30T18:30:56.643Z,0.77
2018-04-30T18:33:25.702Z,0.70
2018-04-30T18:35:54.767Z,0.90
2018-04-30T18:38:23.831Z,0.67
2018-04-30T18:40:52.891Z,0.70
2018-04-30T18:43:21.947Z,0.90
2018-04-30T18:45:51.032Z,0.90
2018-04-30T18:48:20.145Z,1.13
2018-04-30T18:50:49.451Z,0.90
2018-04-30T18:53:18.545Z,1.20
2018-04-30T18:55:47.678Z,1.03
2018-04-30T18:58:16.772Z,1.03
2018-04-30T19:00:45.891Z,1.03
2018-04-30T19:03:15.007Z,1.30
2018-04-30T19:05:44.076Z,1.80
2018-04-30T19:08:13.931Z,2.20
2018-04-30T19:10:43.020Z,2.30
2018-04-30T19:13:12.083Z,3.43
2018-04-30T19:15:41.147Z,2.77
2018-04-30T19:18:10.240Z,2.07
2018-04-30T19:20:39.338Z,1.90
2018-04-30T19:23:09.166Z,2.43
2018-04-30T19:25:38.995Z,2.10
2018-04-30T19:28:08.847Z,6.70
2018-04-30T19:30:37.914Z,1.50
2018-04-30T19:33:07.004Z,2.20
2018-04-30T19:35:36.097Z,1.80
2018-04-30T19:38:05.163Z,2.53
2018-04-30T19:40:34.991Z,1.70
2018-04-30T19:43:04.817Z,1.60
2018-04-30T19:45:34.643Z,1.60
2018-04-30T19:48:04.470Z,2.13
2018-04-30T19:50:34.294Z,2.30
2018-04-30T19:53:04.191Z,2.17
2018-04-30T19:55:33.288Z,2.00
2018-04-30T19:58:02.355Z,2.17
2018-04-30T20:00:32.217Z,3.10
2018-04-30T20:03:01.309Z,2.93
2018-04-30T20:05:30.378Z,4.90
2018-04-30T20:07:59.468Z,5.67
2018-04-30T20:10:28.636Z,7.53
2018-04-30T20:12:57.711Z,11.03
2018-04-30T20:15:26.804Z,10.67
2018-04-30T20:17:55.880Z,15.60
2018-04-30T20:20:25.021Z,17.10
2018-04-30T20:22:54.051Z,9.13
2018-04-30T20:25:23.114Z,12.43
2018-04-30T20:27:52.212Z,10.83
2018-04-30T20:30:21.276Z,14.93
2018-04-30T20:32:50.367Z,18.23
2018-04-30T20:35:19.473Z,18.77
2018-04-30T20:37:48.782Z,16.53
2018-04-30T20:40:18.033Z,14.10
2018-04-30T20:42:47.975Z,15.73
2018-04-30T20:45:17.036Z,15.77
2018-04-30T20:47:46.952Z,16.57
2018-04-30T20:50:16.023Z,14.50
2018-04-30T20:52:45.882Z,12.97
2018-04-30T20:55:14.947Z,18.00
2018-04-30T20:57:44.167Z,13.30
2018-04-30T21:00:13.312Z,13.40
2018-04-30T21:02:42.371Z,8.73
2018-04-30T21:05:11.466Z,9.13
2018-04-30T21:07:40.530Z,6.90
2018-04-30T21:10:09.624Z,9.77
2018-04-30T21:12:39.484Z,9.10
2018-04-30T21:15:08.548Z,8.30
2018-04-30T21:17:37.679Z,7.27
2018-04-30T21:20:07.532Z,6.80
2018-04-30T21:22:36.626Z,4.57
2018-04-30T21:25:05.692Z,4.60
2018-04-30T21:27:34.784Z,4.00
2018-04-30T21:30:03.851Z,3.50
2018-04-30T21:32:33.704Z,7.70
2018-04-30T21:35:02.778Z,4.40
2018-04-30T21:37:32.632Z,3.97
2018-04-30T21:40:01.720Z,2.63
2018-04-30T21:42:31.551Z,3.30
2018-04-30T21:45:01.412Z,2.87
2018-04-30T21:47:30.597Z,3.37
2018-04-30T21:49:59.634Z,2.80
2018-04-30T21:52:28.695Z,2.70
2018-04-30T21:54:58.526Z,4.20
2018-04-30T21:57:28.382Z,2.93
2018-04-30T21:59:58.247Z,3.87
2018-04-30T22:02:27.417Z,3.00
2018-04-30T22:04:56.514Z,3.50
2018-04-30T22:07:25.591Z,2.63
2018-04-30T22:09:54.700Z,2.63
2018-04-30T22:12:23.824Z,4.67
2018-04-30T22:14:52.915Z,3.20
2018-04-30T22:17:22.011Z,2.93
2018-04-30T22:19:51.138Z,3.00
2018-04-30T22:22:20.190Z,4.00
2018-04-30T22:24:50.043Z,3.00
2018-04-30T22:27:19.172Z,3.47
2018-04-30T22:29:48.999Z,3.83
2018-04-30T22:32:18.079Z,4.10
2018-04-30T22:34:47.382Z,4.53
2018-04-30T22:37:16.438Z,5.43
2018-04-30T22:39:45.494Z,4.07
2018-04-30T22:42:15.935Z,4.77
2018-04-30T22:44:45.792Z,4.73
2018-04-30T22:47:14.896Z,10.47
2018-04-30T22:49:43.971Z,3.70
2018-04-30T22:52:13.030Z,3.07
2018-04-30T22:54:42.091Z,3.37
2018-04-30T22:57:11.996Z,4.47
2018-04-30T22:59:41.062Z,3.30
2018-04-30T23:02:10.120Z,3.30
2018-04-30T23:04:39.207Z,2.87
2018-04-30T23:07:08.368Z,3.70
2018-04-30T23:09:38.202Z,3.60
2018-04-30T23:12:07.340Z,3.83
2018-04-30T23:14:36.407Z,3.47
2018-04-30T23:17:05.634Z,7.60
2018-04-30T23:19:34.663Z,5.20
2018-04-30T23:22:03.748Z,4.93
2018-04-30T23:24:33.674Z,4.07
2018-04-30T23:27:03.533Z,4.73
2018-04-30T23:29:32.660Z,4.85
2018-04-30T23:32:01.718Z,5.50
2018-04-30T23:34:30.814Z,4.97
2018-04-30T23:36:59.993Z,4.77
2018-04-30T23:39:29.128Z,6.95
2018-04-30T23:41:58.219Z,4.80
2018-04-30T23:44:27.309Z,4.70
2018-04-30T23:46:56.378Z,4.65
2018-04-30T23:49:26.317Z,4.00
2018-04-30T23:51:55.398Z,4.00
2018-04-30T23:54:24.493Z,4.77
2018-04-30T23:56:53.632Z,4.47
2018-04-30T23:59:23.474Z,5.25
